sensor_id;sensor_type;location;lat;lon;timestamp;temperature;humidity
44305;DHT22;30019;50.576;8.568;2024-01-10T15:01:18;-1.20;99.90
44305;DHT22;30019;50.576;8.568;2024-01-10T15:03:45;-1.30;99.90
44305;DHT22;30019;50.576;8.568;2024-01-10T15:06:10;-1.30;99.90
44305;DHT22;30019;50.576;8.568;2024-01-10T15:08:36;-1.30;99.90
44305;DHT22;30019;50.576;8.568;2024-01-10T15:11:05;-1.20;99.90
44305;DHT22;30019;50.576;8.568;2024-01-10T15:13:30;-1.30;99.90
44305;DHT22;30019;50.576;8.568;2024-01-10T15:15:55;-1.40;99.90
44305;DHT22;30019;50.576;8.568;2024-01-10T15:18:21;-1.30;99.90
44305;DHT22;30019;50.576;8.568;2024-01-10T15:20:46;-1.50;99.90
44305;DHT22;30019;50.576;8.568;2024-01-10T15:23:12;-1.60;99.90
44305;DHT22;30019;50.576;8.568;2024-01-10T15:25:37;-1.80;99.90
44305;DHT22;30019;50.576;8.568;2024-01-10T15:28:03;-1.80;99.90
44305;DHT22;30019;50.576;8.568;2024-01-10T15:30:29;-1.90;99.90
44305;DHT22;30019;50.576;8.568;2024-01-10T15:32:54;-2.00;99.90
44305;DHT22;30019;50.576;8.568;2024-01-10T15:35:20;-2.00;99.90
44305;DHT22;30019;50.576;8.568;2024-01-10T15:37:45;-2.00;99.90
44305;DHT22;30019;50.576;8.568;2024-01-10T15:40:11;-2.10;99.90
44305;DHT22;30019;50.576;8.568;2024-01-10T15:42:40;-2.10;99.90
44305;DHT22;30019;50.576;8.568;2024-01-10T15:45:07;-2.20;99.90
44305;DHT22;30019;50.576;8.568;2024-01-10T15:47:32;-2.10;99.90
44305;DHT22;30019;50.576;8.568;2024-01-10T15:49:58;-2.10;99.90
44305;DHT22;30019;50.576;8.568;2024-01-10T15:52:23;-2.30;99.90
44305;DHT22;30019;50.576;8.568;2024-01-10T15:54:51;-2.70;99.90
44305;DHT22;30019;50.576;8.568;2024-01-10T15:57:23;-2.50;99.90
44305;DHT22;30019;50.576;8.568;2024-01-10T15:59:49;-2.60;99.90
44305;DHT22;30019;50.576;8.568;2024-01-10T16:02:14;-2.70;99.90
44305;DHT22;30019;50.576;8.568;2024-01-10T16:04:40;-2.70;99.90
44305;DHT22;30019;50.576;8.568;2024-01-10T16:07:05;-2.60;99.90
44305;DHT22;30019;50.576;8.568;2024-01-10T16:09:31;-2.70;99.90
44305;DHT22;30019;50.576;8.568;2024-01-10T16:11:56;-2.90;99.90
44305;DHT22;30019;50.576;8.568;2024-01-10T16:14:22;-2.90;99.90
44305;DHT22;30019;50.576;8.568;2024-01-10T16:16:47;-3.00;99.90
44305;DHT22;30019;50.576;8.568;2024-01-10T16:19:13;-3.10;99.90
44305;DHT22;30019;50.576;8.568;2024-01-10T16:21:38;-3.10;99.90
44305;DHT22;30019;50.576;8.568;2024-01-10T16:24:04;-3.30;99.90
44305;DHT22;30019;50.576;8.568;2024-01-10T16:26:29;-3.20;99.90
44305;DHT22;30019;50.576;8.568;2024-01-10T16:28:55;-3.40;99.90
44305;DHT22;30019;50.576;8.568;2024-01-10T16:31:20;-3.40;99.90
44305;DHT22;30019;50.576;8.568;2024-01-10T16:33:46;-3.50;99.90
44305;DHT22;30019;50.576;8.568;2024-01-10T16:36:11;-3.60;99.90
44305;DHT22;30019;50.576;8.568;2024-01-10T16:38:37;-3.70;99.90
44305;DHT22;30019;50.576;8.568;2024-01-10T16:41:02;-3.80;99.90
44305;DHT22;30019;50.576;8.568;2024-01-10T16:43:28;-3.80;99.90
44305;DHT22;30019;50.576;8.568;2024-01-10T16:45:54;-3.90;99.90
44305;DHT22;30019;50.576;8.568;2024-01-10T16:48:20;-4.10;99.90
44305;DHT22;30019;50.576;8.568;2024-01-10T16:50:45;-4.30;99.90
44305;DHT22;30019;50.576;8.568;2024-01-10T16:53:11;-4.40;99.90
44305;DHT22;30019;50.576;8.568;2024-01-10T16:55:36;-4.40;99.90
44305;DHT22;30019;50.576;8.568;2024-01-10T16:58:02;-4.40;99.90
44305;DHT22;30019;50.576;8.568;2024-01-10T17:00:27;-4.40;99.90
44305;DHT22;30019;50.576;8.568;2024-01-10T17:02:53;-4.50;99.90
44305;DHT22;30019;50.576;8.568;2024-01-10T17:05:22;-4.50;99.90
44305;DHT22;30019;50.576;8.568;2024-01-10T17:07:48;-4.50;99.90
44305;DHT22;30019;50.576;8.568;2024-01-10T17:10:13;-4.50;99.90
44305;DHT22;30019;50.576;8.568;2024-01-10T17:12:40;-4.50;99.90
44305;DHT22;30019;50.576;8.568;2024-01-10T17:15:05;-4.50;99.90
44305;DHT22;30019;50.576;8.568;2024-01-10T17:17:31;-4.60;99.90
44305;DHT22;30019;50.576;8.568;2024-01-10T17:19:57;-4.60;99.90
44305;DHT22;30019;50.576;8.568;2024-01-10T17:22:23;-4.70;99.90
44305;DHT22;30019;50.576;8.568;2024-01-10T17:24:49;-4.70;99.90
44305;DHT22;30019;50.576;8.568;2024-01-10T17:27:14;-4.80;99.90
44305;DHT22;30019;50.576;8.568;2024-01-10T17:29:40;-4.80;99.90
44305;DHT22;30019;50.576;8.568;2024-01-10T17:32:05;-4.80;99.90
44305;DHT22;30019;50.576;8.568;2024-01-10T17:34:31;-4.80;99.90
44305;DHT22;30019;50.576;8.568;2024-01-10T17:36:57;-4.80;99.90
44305;DHT22;30019;50.576;8.568;2024-01-10T17:39:22;-4.80;99.90
44305;DHT22;30019;50.576;8.568;2024-01-10T17:41:47;-4.80;99.90
44305;DHT22;30019;50.576;8.568;2024-01-10T17:44:13;-4.90;99.90
44305;DHT22;30019;50.576;8.568;2024-01-10T17:46:39;-4.90;99.90
44305;DHT22;30019;50.576;8.568;2024-01-10T17:49:04;-4.90;99.90
44305;DHT22;30019;50.576;8.568;2024-01-10T19:40:04;-5.80;99.90
44305;DHT22;30019;50.576;8.568;2024-01-10T19:42:30;-5.90;99.90
44305;DHT22;30019;50.576;8.568;2024-01-10T19:44:55;-5.80;99.90
44305;DHT22;30019;50.576;8.568;2024-01-10T19:47:21;-5.80;99.90
44305;DHT22;30019;50.576;8.568;2024-01-10T19:49:47;-5.80;99.90
44305;DHT22;30019;50.576;8.568;2024-01-10T19:52:12;-5.80;99.90
44305;DHT22;30019;50.576;8.568;2024-01-10T19:54:40;-5.80;99.90
44305;DHT22;30019;50.576;8.568;2024-01-10T19:57:05;-5.80;99.90
44305;DHT22;30019;50.576;8.568;2024-01-10T19:59:31;-5.80;99.90
44305;DHT22;30019;50.576;8.568;2024-01-10T20:01:56;-5.70;99.90
44305;DHT22;30019;50.576;8.568;2024-01-10T20:04:22;-5.70;99.90
44305;DHT22;30019;50.576;8.568;2024-01-10T20:06:47;-5.70;99.90
44305;DHT22;30019;50.576;8.568;2024-01-10T20:09:13;-5.70;99.90
44305;DHT22;30019;50.576;8.568;2024-01-10T20:11:43;-5.70;99.90
44305;DHT22;30019;50.576;8.568;2024-01-10T20:14:08;-5.70;99.90
44305;DHT22;30019;50.576;8.568;2024-01-10T20:16:34;-5.80;99.90
44305;DHT22;30019;50.576;8.568;2024-01-10T20:18:59;-5.70;99.90
44305;DHT22;30019;50.576;8.568;2024-01-10T20:21:25;-5.70;99.90
44305;DHT22;30019;50.576;8.568;2024-01-10T20:23:51;-5.80;99.90
44305;DHT22;30019;50.576;8.568;2024-01-10T20:26:17;-5.80;99.90
44305;DHT22;30019;50.576;8.568;2024-01-10T20:28:42;-5.90;99.90
44305;DHT22;30019;50.576;8.568;2024-01-10T20:31:08;-5.90;99.90
44305;DHT22;30019;50.576;8.568;2024-01-10T20:33:34;-5.90;99.90
44305;DHT22;30019;50.576;8.568;2024-01-10T20:36:02;-6.00;99.90
44305;DHT22;30019;50.576;8.568;2024-01-10T20:38:28;-6.00;99.90
44305;DHT22;30019;50.576;8.568;2024-01-10T20:40:53;-6.00;99.90
44305;DHT22;30019;50.576;8.568;2024-01-10T20:43:20;-6.00;99.90
44305;DHT22;30019;50.576;8.568;2024-01-10T20:45:45;-6.00;99.90
44305;DHT22;30019;50.576;8.568;2024-01-10T20:48:10;-5.90;99.90
44305;DHT22;30019;50.576;8.568;2024-01-10T20:50:37;-6.00;99.90
44305;DHT22;30019;50.576;8.568;2024-01-10T20:53:03;-6.10;99.90
44305;DHT22;30019;50.576;8.568;2024-01-10T20:55:28;-6.10;99.90
44305;DHT22;30019;50.576;8.568;2024-01-10T20:57:54;-6.10;99.90
44305;DHT22;30019;50.576;8.568;2024-01-10T21:00:20;-6.10;99.90
44305;DHT22;30019;50.576;8.568;2024-01-10T21:02:49;-6.10;99.90
44305;DHT22;30019;50.576;8.568;2024-01-10T21:05:15;-6.00;99.90
44305;DHT22;30019;50.576;8.568;2024-01-10T21:07:41;-6.00;99.90
44305;DHT22;30019;50.576;8.568;2024-01-10T21:10:06;-6.10;99.90
44305;DHT22;30019;50.576;8.568;2024-01-10T21:12:32;-6.00;99.90
44305;DHT22;30019;50.576;8.568;2024-01-10T21:14:57;-6.00;99.90
44305;DHT22;30019;50.576;8.568;2024-01-10T21:17:23;-6.10;99.90
44305;DHT22;30019;50.576;8.568;2024-01-10T21:19:50;-6.10;99.90
44305;DHT22;30019;50.576;8.568;2024-01-10T21:22:16;-6.10;99.90
44305;DHT22;30019;50.576;8.568;2024-01-10T21:24:41;-6.20;99.90
44305;DHT22;30019;50.576;8.568;2024-01-10T21:27:07;-6.20;99.90
44305;DHT22;30019;50.576;8.568;2024-01-10T21:29:33;-6.20;99.90
44305;DHT22;30019;50.576;8.568;2024-01-10T21:31:58;-6.20;99.90
44305;DHT22;30019;50.576;8.568;2024-01-10T21:34:24;-6.20;99.90
44305;DHT22;30019;50.576;8.568;2024-01-10T21:36:49;-6.20;99.90
44305;DHT22;30019;50.576;8.568;2024-01-10T21:39:15;-6.20;99.90
44305;DHT22;30019;50.576;8.568;2024-01-10T21:41:40;-6.20;99.90
44305;DHT22;30019;50.576;8.568;2024-01-10T21:44:06;-6.20;99.90
44305;DHT22;30019;50.576;8.568;2024-01-10T21:46:31;-6.30;99.90
44305;DHT22;30019;50.576;8.568;2024-01-10T21:48:56;-6.40;99.90
44305;DHT22;30019;50.576;8.568;2024-01-10T21:51:23;-6.30;99.90
44305;DHT22;30019;50.576;8.568;2024-01-10T21:53:48;-6.30;99.90
44305;DHT22;30019;50.576;8.568;2024-01-10T21:56:14;-6.30;99.90
44305;DHT22;30019;50.576;8.568;2024-01-10T21:58:40;-6.40;99.90
44305;DHT22;30019;50.576;8.568;2024-01-10T22:01:05;-6.50;99.90
44305;DHT22;30019;50.576;8.568;2024-01-10T22:03:33;-6.50;99.90
44305;DHT22;30019;50.576;8.568;2024-01-10T22:05:58;-6.50;99.90
44305;DHT22;30019;50.576;8.568;2024-01-10T22:08:24;-6.50;99.90
44305;DHT22;30019;50.576;8.568;2024-01-10T22:10:49;-6.50;99.90
44305;DHT22;30019;50.576;8.568;2024-01-10T22:13:15;-6.50;99.90
44305;DHT22;30019;50.576;8.568;2024-01-10T22:15:41;-6.50;99.90
44305;DHT22;30019;50.576;8.568;2024-01-10T22:18:06;-6.60;99.90
44305;DHT22;30019;50.576;8.568;2024-01-10T22:20:31;-6.60;99.90
44305;DHT22;30019;50.576;8.568;2024-01-10T22:22:57;-6.60;99.90
44305;DHT22;30019;50.576;8.568;2024-01-10T22:25:23;-6.60;99.90
44305;DHT22;30019;50.576;8.568;2024-01-10T22:27:48;-6.70;99.90
44305;DHT22;30019;50.576;8.568;2024-01-10T22:30:14;-6.70;99.90
44305;DHT22;30019;50.576;8.568;2024-01-10T22:32:39;-6.60;99.90
44305;DHT22;30019;50.576;8.568;2024-01-10T22:35:05;-6.70;99.90
44305;DHT22;30019;50.576;8.568;2024-01-10T22:37:30;-6.70;99.90
44305;DHT22;30019;50.576;8.568;2024-01-10T22:39:56;-6.70;99.90
44305;DHT22;30019;50.576;8.568;2024-01-10T22:42:21;-6.70;99.90
44305;DHT22;30019;50.576;8.568;2024-01-10T22:44:46;-6.70;99.90
44305;DHT22;30019;50.576;8.568;2024-01-10T22:47:12;-6.80;99.90
44305;DHT22;30019;50.576;8.568;2024-01-10T22:49:37;-6.80;99.90
44305;DHT22;30019;50.576;8.568;2024-01-10T22:52:03;-6.90;99.90
44305;DHT22;30019;50.576;8.568;2024-01-10T22:54:29;-6.90;99.90
44305;DHT22;30019;50.576;8.568;2024-01-10T22:56:55;-6.90;99.90
44305;DHT22;30019;50.576;8.568;2024-01-10T22:59:20;-7.00;99.90
44305;DHT22;30019;50.576;8.568;2024-01-10T23:01:46;-7.00;99.90
44305;DHT22;30019;50.576;8.568;2024-01-10T23:04:11;-7.10;99.90
44305;DHT22;30019;50.576;8.568;2024-01-10T23:06:37;-7.20;99.90
44305;DHT22;30019;50.576;8.568;2024-01-10T23:09:02;-7.10;99.90
44305;DHT22;30019;50.576;8.568;2024-01-10T23:11:28;-7.10;99.90
44305;DHT22;30019;50.576;8.568;2024-01-10T23:13:53;-7.20;99.90
44305;DHT22;30019;50.576;8.568;2024-01-10T23:16:19;-7.30;99.90
44305;DHT22;30019;50.576;8.568;2024-01-10T23:18:44;-7.30;99.90
44305;DHT22;30019;50.576;8.568;2024-01-10T23:21:09;-7.20;99.90
44305;DHT22;30019;50.576;8.568;2024-01-10T23:23:35;-7.30;99.90
44305;DHT22;30019;50.576;8.568;2024-01-10T23:26:04;-7.30;99.90
44305;DHT22;30019;50.576;8.568;2024-01-10T23:28:30;-7.30;99.90
44305;DHT22;30019;50.576;8.568;2024-01-10T23:30:55;-7.30;99.90
44305;DHT22;30019;50.576;8.568;2024-01-10T23:33:21;-7.40;99.90
44305;DHT22;30019;50.576;8.568;2024-01-10T23:35:46;-7.40;99.90
44305;DHT22;30019;50.576;8.568;2024-01-10T23:40:37;-7.30;99.90
44305;DHT22;30019;50.576;8.568;2024-01-10T23:43:05;-7.30;99.90
44305;DHT22;30019;50.576;8.568;2024-01-10T23:45:30;-7.30;99.90
44305;DHT22;30019;50.576;8.568;2024-01-10T23:47:56;-7.30;99.90
44305;DHT22;30019;50.576;8.568;2024-01-10T23:50:21;-7.30;99.90
44305;DHT22;30019;50.576;8.568;2024-01-10T23:52:47;-7.30;99.90
44305;DHT22;30019;50.576;8.568;2024-01-10T23:55:13;-7.20;99.90
44305;DHT22;30019;50.576;8.568;2024-01-10T23:57:38;-7.30;99.90
